Time;durP1;ratioP1;P1;durP2;ratioP2;P2;SDS_P1;SDS_P2;PMS_P1;PMS_P2;Temp;Humidity;BMP_temperature;BMP_pressure;BME280_temperature;BME280_humidity;BME280_pressure;Samples;Min_cycle;Max_cycle;Signal;HPM_P1;HPM_P2
2022/06/29 00:00:23;;;;;;;11.87;9.63;;;;;;;20.05;100.00;101709.50;2107241;28;20180;-68
2022/06/29 00:01:24;;;;;;;10.67;9.77;;;;;;;19.83;100.00;101684.34;2098188;28;20630;-68
2022/06/29 00:02:24;;;;;;;11.20;10.10;;;;;;;20.07;100.00;101706.97;2098299;28;20437;-68
2022/06/29 00:03:24;;;;;;;11.17;10.10;;;;;;;19.59;100.00;101643.31;2103790;28;20440;-69
2022/06/29 00:04:25;;;;;;;11.13;10.07;;;;;;;20.09;100.00;101707.31;2101978;28;20195;-68
2022/06/29 00:05:26;;;;;;;11.03;9.93;;;;;;;20.10;100.00;101704.03;2097844;28;20189;-68
2022/06/29 00:06:27;;;;;;;10.73;9.63;;;;;;;20.10;100.00;101704.03;2098138;28;20174;-68
2022/06/29 00:07:27;;;;;;;10.80;9.73;;;;;;;20.11;100.00;101699.19;2098129;28;20423;-68
2022/06/29 00:08:29;;;;;;;15.43;9.90;;;;;;;20.09;100.00;101701.69;2097973;28;20186;-68
2022/06/29 00:09:29;;;;;;;10.83;9.93;;;;;;;20.11;100.00;101704.81;2097772;28;20179;-68
2022/06/29 00:10:30;;;;;;;12.33;10.37;;;;;;;20.12;100.00;101703.56;2105563;28;20449;-68
2022/06/29 00:11:30;;;;;;;12.57;10.47;;;;;;;20.11;100.00;101697.16;2100410;28;20284;-68
2022/06/29 00:12:31;;;;;;;11.47;10.40;;;;;;;20.12;100.00;101690.25;2102967;28;20247;-68
2022/06/29 00:13:31;;;;;;;11.23;10.27;;;;;;;20.11;100.00;101699.19;2101956;28;20240;-68
2022/06/29 00:14:41;;;;;;;10.77;9.87;;;;;;;20.12;100.00;101692.31;2097327;28;20196;-69
2022/06/29 00:15:42;;;;;;;10.90;9.47;;;;;;;20.11;100.00;101691.50;2097649;28;20620;-68
2022/06/29 00:16:42;;;;;;;12.50;10.50;;;;;;;20.10;100.00;101686.34;2097856;28;20792;-68
2022/06/29 00:17:43;;;;;;;12.63;9.30;;;;;;;19.38;100.00;101583.16;2098003;28;20197;-68
2022/06/29 00:18:44;;;;;;;10.13;9.07;;;;;;;20.10;100.00;101692.78;2098574;28;20213;-68
2022/06/29 00:19:45;;;;;;;11.33;9.97;;;;;;;19.93;100.00;101660.59;2097621;28;20200;-68
2022/06/29 00:20:45;;;;;;;10.63;9.67;;;;;;;20.05;100.00;101687.00;2098282;28;20617;-68
2022/06/29 00:21:46;;;;;;;11.23;10.23;;;;;;;20.06;100.00;101682.91;2102544;28;20199;-69
2022/06/29 00:22:47;;;;;;;12.87;10.73;;;;;;;20.06;100.00;101689.31;2106309;28;20208;-68
2022/06/29 00:23:48;;;;;;;12.73;10.10;;;;;;;20.00;100.00;101679.94;2102992;28;20330;-68
2022/06/29 00:24:48;;;;;;;12.47;9.80;;;;;;;20.09;100.00;101682.00;2098081;28;20437;-69
2022/06/29 00:25:49;;;;;;;14.47;9.80;;;;;;;20.10;100.00;101683.53;2097742;28;20539;-68
2022/06/29 00:26:50;;;;;;;12.77;10.03;;;;;;;20.12;100.00;101675.44;2098760;28;20242;-68
2022/06/29 00:27:50;;;;;;;11.07;9.87;;;;;;;20.12;100.00;101675.44;2097526;28;20225;-68
2022/06/29 00:28:51;;;;;;;11.07;9.83;;;;;;;20.09;100.00;101682.00;2097430;28;20552;-69
2022/06/29 00:29:51;;;;;;;12.43;9.43;;;;;;;20.06;100.00;101669.59;2096734;28;20206;-68
2022/06/29 00:30:52;;;;;;;12.80;9.10;;;;;;;20.14;100.00;101675.72;2098056;28;20469;-68
2022/06/29 00:31:53;;;;;;;13.50;8.47;;;;;;;20.14;100.00;101675.72;2097808;28;20208;-68
2022/06/29 00:32:53;;;;;;;11.37;8.90;;;;;;;20.14;100.00;101681.34;2097725;28;20177;-68
2022/06/29 00:33:53;;;;;;;11.47;9.03;;;;;;;20.15;100.00;101674.47;2097974;28;20205;-68
2022/06/29 00:34:54;;;;;;;14.13;9.40;;;;;;;20.13;100.00;101674.16;2098672;28;20181;-68
2022/06/29 00:35:55;;;;;;;13.83;8.57;;;;;;;20.12;100.00;101667.75;2098103;28;20190;-68
2022/06/29 00:36:55;;;;;;;10.53;7.90;;;;;;;19.65;100.00;101594.38;2104848;28;20204;-68
2022/06/29 00:37:56;;;;;;;10.80;8.77;;;;;;;19.75;100.00;101609.22;2100312;28;20195;-68
2022/06/29 00:38:56;;;;;;;16.70;8.90;;;;;;;19.73;100.00;101626.56;2098028;28;20590;-68
2022/06/29 00:39:57;;;;;;;10.07;8.80;;;;;;;20.09;100.00;101671.53;2097494;28;20253;-68
2022/06/29 00:40:57;;;;;;;12.80;9.03;;;;;;;20.05;100.00;101658.84;2100205;28;20179;-68
2022/06/29 00:41:58;;;;;;;13.40;9.50;;;;;;;20.07;100.00;101659.16;2104739;28;20271;-68
2022/06/29 00:42:59;;;;;;;10.63;8.77;;;;;;;20.11;100.00;101660.56;2097754;28;20186;-68
2022/06/29 00:43:59;;;;;;;15.17;9.13;;;;;;;20.11;100.00;101654.94;2098504;28;20178;-68
2022/06/29 00:45:00;;;;;;;12.07;9.20;;;;;;;19.69;100.00;101605.44;2097624;28;20226;-68
2022/06/29 00:46:00;;;;;;;14.17;8.83;;;;;;;19.98;100.00;101629.00;2097142;28;20205;-68
2022/06/29 00:47:03;;;;;;;10.27;9.27;;;;;;;20.13;100.00;101657.28;2102948;28;20276;-68
2022/06/29 00:48:04;;;;;;;9.47;8.30;;;;;;;20.14;100.00;101656.81;2101693;28;20217;-68
2022/06/29 00:49:05;;;;;;;11.07;8.83;;;;;;;20.10;100.00;101658.22;2097909;28;20538;-68
2022/06/29 00:50:06;;;;;;;13.50;9.30;;;;;;;19.89;100.00;101619.78;2097875;28;20179;-68
2022/06/29 00:51:11;;;;;;;12.40;9.13;;;;;;;20.05;100.00;101653.22;2097319;28;20213;-68
2022/06/29 00:52:13;;;;;;;11.77;8.47;;;;;;;20.05;100.00;101648.34;2097559;28;20205;-68
2022/06/29 00:53:16;;;;;;;10.50;8.80;;;;;;;20.04;100.00;101646.81;2098527;28;20462;-68
2022/06/29 00:54:24;;;;;;;10.97;7.87;;;;;;;19.63;100.00;101590.47;2097788;28;20698;-68
2022/06/29 00:55:28;;;;;;;9.93;7.30;;;;;;;20.06;100.00;101660.41;2098428;28;20537;-68
2022/06/29 00:56:28;;;;;;;13.90;7.87;;;;;;;20.06;100.00;101640.72;2098767;28;20444;-68
2022/06/29 00:57:30;;;;;;;13.43;8.03;;;;;;;20.07;100.00;101634.63;2097881;28;20455;-68
2022/06/29 00:58:31;;;;;;;11.97;8.47;;;;;;;20.07;100.00;101633.81;2097720;28;20202;-68
2022/06/29 00:59:37;;;;;;;12.97;8.00;;;;;;;20.02;100.00;101628.84;2097796;28;20939;-68
2022/06/29 01:00:37;;;;;;;11.93;8.03;;;;;;;20.07;100.00;101631.81;2097670;28;20197;-68
2022/06/29 01:01:40;;;;;;;14.73;7.77;;;;;;;19.19;100.00;101491.66;2099588;28;20517;-71
2022/06/29 01:02:41;;;;;;;13.30;8.50;;;;;;;20.09;100.00;101628.53;2104422;28;20212;-68
2022/06/29 01:03:41;;;;;;;13.07;7.80;;;;;;;20.10;100.00;101628.06;2097493;28;20432;-68
2022/06/29 01:04:43;;;;;;;9.73;7.70;;;;;;;20.13;100.00;101624.31;2098380;28;20174;-68
2022/06/29 01:05:43;;;;;;;8.87;7.87;;;;;;;19.54;100.00;101537.84;2097413;28;20542;-68
2022/06/29 01:06:44;;;;;;;9.27;7.57;;;;;;;19.22;100.00;101485.13;2097742;28;20472;-68
2022/06/29 01:07:45;;;;;;;9.77;7.43;;;;;;;20.08;100.00;101615.72;2102919;28;20276;-68
2022/06/29 01:08:45;;;;;;;7.93;7.00;;;;;;;20.13;100.00;101629.13;2105365;28;20245;-68
2022/06/29 01:09:46;;;;;;;8.97;7.50;;;;;;;20.14;100.00;101625.06;2102975;28;20772;-68
2022/06/29 01:10:47;;;;;;;8.40;7.70;;;;;;;20.12;100.00;101627.59;2097751;28;20188;-68
2022/06/29 01:11:49;;;;;;;8.03;7.23;;;;;;;19.07;100.00;101470.16;2097084;28;20189;-68
2022/06/29 01:12:51;;;;;;;7.93;7.23;;;;;;;20.12;100.00;101622.72;2103215;28;20186;-68
2022/06/29 01:13:52;;;;;;;10.30;7.50;;;;;;;19.19;100.00;101479.66;2098461;28;20429;-68
2022/06/29 01:14:55;;;;;;;8.10;7.30;;;;;;;19.19;100.00;101490.91;2104984;28;21032;-68
2022/06/29 01:15:56;;;;;;;10.20;7.17;;;;;;;20.09;100.00;101626.50;2099037;28;20628;-68
2022/06/29 01:16:56;;;;;;;11.10;7.37;;;;;;;19.98;100.00;101616.97;2103097;28;20471;-69
2022/06/29 01:17:57;;;;;;;11.83;7.00;;;;;;;20.08;100.00;101629.78;2105178;28;20208;-68
2022/06/29 01:18:57;;;;;;;10.07;7.13;;;;;;;20.07;100.00;101631.81;2104910;28;20290;-68
2022/06/29 01:19:58;;;;;;;9.57;7.40;;;;;;;20.05;100.00;101631.47;2103986;28;20187;-68
2022/06/29 01:21:04;;;;;;;8.40;7.53;;;;;;;20.05;100.00;101642.72;2097505;28;20183;-68
2022/06/29 01:22:19;;;;;;;9.67;7.73;;;;;;;20.02;100.00;101621.19;2098529;28;20194;-68
2022/06/29 01:23:20;;;;;;;9.27;7.90;;;;;;;20.00;100.00;101634.16;2104507;28;20462;-68
2022/06/29 01:24:22;;;;;;;10.60;7.90;;;;;;;20.00;100.00;101626.50;2097984;28;20436;-68
2022/06/29 01:25:23;;;;;;;13.57;7.97;;;;;;;20.01;100.00;101633.66;2097911;28;20566;-69
2022/06/29 01:26:23;;;;;;;8.27;7.53;;;;;;;20.01;100.00;101630.84;2105012;28;20462;-69
2022/06/29 01:27:24;;;;;;;11.83;8.13;;;;;;;19.25;100.00;101511.53;2099636;28;20225;-68
2022/06/29 01:28:25;;;;;;;11.73;7.80;;;;;;;20.00;100.00;101628.53;2097552;28;20263;-68
2022/06/29 01:29:27;;;;;;;11.60;8.10;;;;;;;20.01;100.00;101628.03;2101044;28;20277;-68
2022/06/29 01:30:27;;;;;;;8.13;7.33;;;;;;;19.99;100.00;101630.56;2105817;28;20570;-69
2022/06/29 01:31:28;;;;;;;9.90;7.70;;;;;;;19.99;100.00;101624.13;2103808;28;20477;-69
2022/06/29 01:32:28;;;;;;;8.17;7.33;;;;;;;20.00;100.00;101622.91;2097368;28;20186;-69
2022/06/29 01:33:29;;;;;;;8.83;7.97;;;;;;;19.97;100.00;101618.22;2097673;28;20206;-68
2022/06/29 01:34:30;;;;;;;9.23;8.33;;;;;;;19.96;100.00;101630.72;2097423;28;20198;-69
2022/06/29 01:35:31;;;;;;;9.37;8.47;;;;;;;19.96;100.00;101625.88;2097158;28;20200;-68
2022/06/29 01:36:31;;;;;;;8.93;7.87;;;;;;;19.95;100.00;101620.75;2097361;28;20443;-68
2022/06/29 01:37:32;;;;;;;8.70;7.80;;;;;;;19.86;100.00;101613.06;2097594;28;20207;-68
2022/06/29 01:38:35;;;;;;;10.27;8.27;;;;;;;19.91;100.00;101620.88;2100822;28;20550;-68
2022/06/29 01:39:36;;;;;;;9.33;8.40;;;;;;;19.91;100.00;101622.94;2103199;28;20211;-69
2022/06/29 01:40:37;;;;;;;9.00;8.10;;;;;;;19.92;100.00;101616.84;2097099;28;20967;-69
2022/06/29 01:41:38;;;;;;;10.63;8.07;;;;;;;19.91;100.00;101620.88;2097242;28;20420;-68
2022/06/29 01:42:38;;;;;;;11.13;8.33;;;;;;;19.67;100.00;101586.25;2098066;28;20515;-68
2022/06/29 01:43:40;;;;;;;11.13;8.13;;;;;;;19.79;100.00;101619.03;2104494;28;20684;-68
2022/06/29 01:44:40;;;;;;;7.47;6.77;;;;;;;19.77;100.00;101620.75;2099020;28;20565;-68
2022/06/29 01:45:40;;;;;;;10.20;7.43;;;;;;;19.66;100.00;101612.03;2102435;28;20497;-69
2022/06/29 01:46:42;;;;;;;10.53;7.03;;;;;;;19.63;100.00;101618.59;2101282;28;20231;-68
2022/06/29 01:47:42;;;;;;;12.33;6.20;;;;;;;19.63;100.00;101613.75;2097347;28;20214;-69
2022/06/29 01:48:42;;;;;;;8.63;6.60;;;;;;;19.65;100.00;101611.25;2099094;28;20456;-68
2022/06/29 01:49:43;;;;;;;9.00;8.10;;;;;;;19.65;100.00;101616.09;2104723;28;20201;-69
2022/06/29 01:50:43;;;;;;;9.50;7.53;;;;;;;19.65;100.00;101607.66;2098079;28;20245;-68
2022/06/29 01:51:44;;;;;;;9.37;8.27;;;;;;;19.69;100.00;101616.69;2097486;28;20194;-69
2022/06/29 01:52:44;;;;;;;8.43;7.47;;;;;;;19.69;100.00;101620.31;2104258;28;20197;-69
2022/06/29 01:53:45;;;;;;;8.90;7.77;;;;;;;19.70;100.00;101613.44;2104785;28;20294;-68
2022/06/29 01:54:45;;;;;;;9.13;8.20;;;;;;;19.66;100.00;101618.44;2100851;28;20200;-69
2022/06/29 01:55:46;;;;;;;13.13;8.57;;;;;;;19.49;100.00;101605.97;2097416;28;20620;-69
2022/06/29 01:56:47;;;;;;;9.43;8.10;;;;;;;19.64;100.00;101618.13;2097229;28;20248;-68
2022/06/29 01:57:47;;;;;;;13.90;9.00;;;;;;;19.62;100.00;101617.03;2096625;28;20488;-68
2022/06/29 01:58:48;;;;;;;8.67;7.77;;;;;;;19.58;100.00;101617.19;2097905;28;20197;-69
2022/06/29 01:59:48;;;;;;;12.43;8.30;;;;;;;19.54;100.00;101615.81;2106327;28;20206;-68
2022/06/29 02:00:49;;;;;;;11.07;8.33;;;;;;;19.54;100.00;101613.00;2098428;28;20214;-68
2022/06/29 02:01:50;;;;;;;10.23;7.97;;;;;;;19.54;100.00;101615.81;2097225;28;20269;-68
2022/06/29 02:02:50;;;;;;;10.70;7.47;;;;;;;19.49;100.00;101616.44;2097340;28;20546;-68
2022/06/29 02:03:51;;;;;;;12.10;7.67;;;;;;;19.48;100.00;101609.22;2097209;28;20204;-68
2022/06/29 02:04:51;;;;;;;10.60;7.73;;;;;;;19.42;100.00;101602.69;2096571;28;20269;-68
2022/06/29 02:05:52;;;;;;;8.70;7.80;;;;;;;19.46;100.00;101611.75;2096751;28;20209;-68
2022/06/29 02:06:52;;;;;;;10.73;8.40;;;;;;;19.40;100.00;101602.38;2096848;28;20181;-68
2022/06/29 02:07:53;;;;;;;12.57;8.37;;;;;;;19.39;100.00;101607.22;2106383;28;20186;-68
2022/06/29 02:08:53;;;;;;;9.73;8.53;;;;;;;19.39;100.00;101620.50;2098194;28;20580;-68
2022/06/29 02:09:54;;;;;;;10.57;8.80;;;;;;;18.73;100.00;101501.34;2103256;28;20193;-68
2022/06/29 02:10:55;;;;;;;10.67;9.60;;;;;;;19.42;100.00;101602.69;2105654;28;20201;-68
2022/06/29 02:11:55;;;;;;;13.03;9.13;;;;;;;19.34;100.00;101607.84;2101678;28;20551;-68
2022/06/29 02:12:56;;;;;;;11.13;9.47;;;;;;;19.30;100.00;101601.59;2102923;28;20234;-68
2022/06/29 02:13:57;;;;;;;10.23;9.23;;;;;;;19.40;100.00;101610.81;2105272;28;20216;-68
2022/06/29 02:14:57;;;;;;;10.93;9.83;;;;;;;19.37;100.00;101609.72;2104461;28;20209;-68
2022/06/29 02:15:57;;;;;;;11.37;8.97;;;;;;;19.38;100.00;101611.28;2097355;28;20938;-68
2022/06/29 02:16:58;;;;;;;10.73;9.47;;;;;;;19.40;100.00;101610.81;2097242;28;20206;-68
2022/06/29 02:17:58;;;;;;;15.43;9.47;;;;;;;19.42;100.00;101603.47;2097171;28;20284;-68
2022/06/29 02:18:59;;;;;;;10.60;9.07;;;;;;;18.39;100.00;101439.13;2097087;28;20215;-68
2022/06/29 02:19:59;;;;;;;10.37;9.37;;;;;;;19.41;100.00;101598.31;2097155;28;20196;-68
2022/06/29 02:21:00;;;;;;;10.77;9.60;;;;;;;19.43;100.00;101604.25;2100044;28;20637;-68
2022/06/29 02:22:02;;;;;;;12.17;9.00;;;;;;;19.43;100.00;101607.84;2104673;28;20183;-68
2022/06/29 02:23:02;;;;;;;10.40;9.20;;;;;;;19.34;100.00;101590.97;2104421;28;20199;-68
2022/06/29 02:24:03;;;;;;;10.40;9.37;;;;;;;19.45;100.00;101602.50;2097812;28;20434;-68
2022/06/29 02:25:04;;;;;;;10.17;8.93;;;;;;;19.48;100.00;101606.41;2104327;28;20197;-68
2022/06/29 02:26:05;;;;;;;11.83;9.50;;;;;;;19.51;100.00;101608.31;2105257;28;20190;-68
2022/06/29 02:27:05;;;;;;;11.10;9.63;;;;;;;19.52;100.00;101605.03;2105122;28;20188;-68
2022/06/29 02:28:06;;;;;;;11.10;9.03;;;;;;;19.53;100.00;101600.16;2100673;28;20204;-68
2022/06/29 02:29:06;;;;;;;10.07;8.60;;;;;;;19.42;100.00;101580.19;2100290;28;20609;-68
2022/06/29 02:30:11;;;;;;;15.80;8.80;;;;;;;19.13;100.00;101532.13;2102991;28;20216;-68
2022/06/29 02:35:23;;;;;;;9.23;7.90;;;;;;;19.54;100.00;101598.94;2096564;28;20450;-68
2022/06/29 02:36:23;;;;;;;9.23;8.30;;;;;;;19.55;100.00;101598.44;2096823;28;20519;-68
2022/06/29 02:37:24;;;;;;;9.30;8.30;;;;;;;19.03;100.00;101519.31;2096741;28;20212;-68
2022/06/29 02:38:24;;;;;;;10.37;7.70;;;;;;;19.58;100.00;101596.72;2096819;28;20634;-68
2022/06/29 02:39:25;;;;;;;11.03;8.73;;;;;;;19.23;100.00;101542.09;2097071;28;20191;-68
2022/06/29 02:40:25;;;;;;;8.97;7.83;;;;;;;19.60;100.00;101597.81;2096895;28;20618;-68
2022/06/29 02:41:26;;;;;;;10.43;7.50;;;;;;;19.26;100.00;101550.41;2098017;28;20205;-68
2022/06/29 02:42:27;;;;;;;10.90;7.80;;;;;;;19.62;100.00;101592.53;2106023;28;20174;-68
2022/06/29 02:43:27;;;;;;;9.10;8.20;;;;;;;19.56;100.00;101577.53;2097146;28;20764;-68
2022/06/29 02:44:28;;;;;;;10.10;7.90;;;;;;;19.65;100.00;101588.75;2096972;28;20209;-68
2022/06/29 02:45:28;;;;;;;8.20;7.40;;;;;;;19.69;100.00;101589.38;2096465;28;20187;-68
2022/06/29 02:46:29;;;;;;;9.97;7.10;;;;;;;19.67;100.00;101596.72;2100726;28;20195;-68
2022/06/29 02:47:29;;;;;;;9.47;7.90;;;;;;;19.71;100.00;101588.91;2105359;28;20386;-68
2022/06/29 02:48:32;;;;;;;8.77;7.87;;;;;;;19.74;100.00;101597.19;2104417;28;20184;-68
2022/06/29 02:49:33;;;;;;;8.40;7.60;;;;;;;19.17;100.00;101501.81;2104409;28;20204;-68
2022/06/29 02:50:34;;;;;;;11.53;7.87;;;;;;;19.83;100.00;101602.78;2105060;28;20411;-68
2022/06/29 02:51:34;;;;;;;14.10;7.37;;;;;;;19.82;100.00;101603.25;2106034;28;20261;-68
2022/06/29 02:52:35;;;;;;;12.57;6.63;;;;;;;19.83;100.00;101604.81;2097663;28;20191;-68
2022/06/29 02:53:35;;;;;;;14.53;6.90;;;;;;;19.83;100.00;101611.22;2097017;28;20596;-68
2022/06/29 02:54:36;;;;;;;9.27;6.87;;;;;;;19.78;100.00;101608.25;2097037;28;20268;-68
2022/06/29 02:55:37;;;;;;;13.60;7.23;;;;;;;19.36;100.00;101548.34;2099235;28;20202;-68
2022/06/29 02:56:37;;;;;;;13.13;7.13;;;;;;;19.72;100.00;101607.34;2101517;28;20195;-68
2022/06/29 02:57:38;;;;;;;11.30;7.33;;;;;;;19.69;100.00;101605.44;2098690;28;20174;-68
2022/06/29 02:58:38;;;;;;;9.50;7.27;;;;;;;19.71;100.00;101602.97;2104831;28;20207;-68
2022/06/29 02:59:39;;;;;;;13.50;7.30;;;;;;;19.65;100.00;101602.81;2106051;28;20539;-68
2022/06/29 03:00:39;;;;;;;9.93;7.70;;;;;;;19.63;100.00;101604.53;2105139;28;20288;-68
2022/06/29 03:01:40;;;;;;;10.73;7.57;;;;;;;19.62;100.00;101602.97;2097673;28;20281;-68
2022/06/29 03:02:40;;;;;;;13.03;7.83;;;;;;;19.60;100.00;101608.31;2096321;28;20677;-68
2022/06/29 03:03:41;;;;;;;9.23;7.00;;;;;;;19.55;100.00;101603.31;2096981;28;20189;-68
2022/06/29 03:04:41;;;;;;;12.20;7.37;;;;;;;19.48;100.00;101615.66;2099909;28;20201;-68
2022/06/29 03:05:42;;;;;;;8.63;7.23;;;;;;;19.42;100.00;101609.09;2104682;28;20721;-68
2022/06/29 03:06:42;;;;;;;8.20;7.40;;;;;;;18.34;100.00;101453.75;2104499;28;20184;-68
2022/06/29 03:07:43;;;;;;;10.10;7.70;;;;;;;19.36;100.00;101610.19;2105532;28;20174;-68
2022/06/29 03:08:44;;;;;;;12.27;8.03;;;;;;;19.32;100.00;101612.38;2096880;28;20186;-68
2022/06/29 03:09:44;;;;;;;9.27;7.63;;;;;;;19.28;100.00;101614.53;2103495;28;20186;-68
2022/06/29 03:10:45;;;;;;;9.83;6.67;;;;;;;19.29;100.00;101619.72;2099208;28;20194;-68
2022/06/29 03:11:45;;;;;;;10.00;7.00;;;;;;;19.32;100.00;101612.38;2100798;28;20192;-68
2022/06/29 03:12:46;;;;;;;9.83;6.87;;;;;;;19.35;100.00;101612.19;2104337;28;20202;-68
2022/06/29 03:13:46;;;;;;;10.37;6.37;;;;;;;19.33;100.00;101625.16;2098835;28;20199;-68
2022/06/29 03:14:46;;;;;;;9.70;6.73;;;;;;;19.36;100.00;101613.78;2105046;28;20182;-68
2022/06/29 03:15:47;;;;;;;11.27;6.70;;;;;;;18.44;100.00;101469.38;2105395;28;20225;-68
2022/06/29 03:16:47;;;;;;;13.97;7.27;;;;;;;19.13;100.00;101579.88;2096928;28;20199;-68
2022/06/29 03:17:48;;;;;;;11.40;6.67;;;;;;;19.37;100.00;101617.38;2096336;28;20191;-68
2022/06/29 03:18:49;;;;;;;11.03;7.20;;;;;;;19.37;100.00;101615.34;2102454;28;20656;-68
2022/06/29 03:19:50;;;;;;;8.97;6.80;;;;;;;19.32;100.00;101592.69;2100574;28;20199;-68
2022/06/29 03:20:50;;;;;;;10.30;6.77;;;;;;;19.38;100.00;101611.28;2096855;28;20520;-68
2022/06/29 03:21:51;;;;;;;12.97;7.17;;;;;;;19.39;100.00;101606.44;2096899;28;20178;-68
2022/06/29 03:22:52;;;;;;;8.50;7.60;;;;;;;19.07;100.00;101548.81;2102410;28;20465;-69
2022/06/29 03:23:52;;;;;;;8.80;7.73;;;;;;;19.30;100.00;101581.16;2096203;28;20195;-68
2022/06/29 03:24:53;;;;;;;10.97;7.80;;;;;;;19.40;100.00;101596.75;2097404;28;20180;-68
2022/06/29 03:25:53;;;;;;;8.53;7.70;;;;;;;19.39;100.00;101593.16;2096458;28;20190;-68
2022/06/29 03:26:54;;;;;;;9.60;8.40;;;;;;;19.37;100.00;101586.44;2096640;28;20215;-68
2022/06/29 03:27:54;;;;;;;10.63;7.70;;;;;;;18.72;100.00;101488.56;2101287;28;20197;-68
2022/06/29 03:28:55;;;;;;;12.03;7.87;;;;;;;19.39;100.00;101590.34;2105103;28;20256;-68
2022/06/29 03:29:55;;;;;;;10.07;8.23;;;;;;;19.30;100.00;101579.09;2104901;28;20246;-68
2022/06/29 03:30:56;;;;;;;10.53;8.17;;;;;;;18.67;100.00;101475.16;2103433;28;20208;-68
2022/06/29 03:31:56;;;;;;;10.63;7.93;;;;;;;19.47;100.00;101602.06;2096600;28;20169;-68
2022/06/29 03:32:57;;;;;;;9.77;7.77;;;;;;;19.44;100.00;101594.56;2097490;28;20207;-68
2022/06/29 03:33:58;;;;;;;14.27;7.87;;;;;;;19.52;100.00;101607.03;2096765;28;20679;-68
2022/06/29 03:34:58;;;;;;;12.60;8.03;;;;;;;18.74;100.00;101497.31;2096402;28;20558;-68
2022/06/29 03:35:59;;;;;;;14.07;8.00;;;;;;;19.47;100.00;101605.66;2096519;28;20245;-68
2022/06/29 03:36:59;;;;;;;10.83;8.10;;;;;;;19.52;100.00;101607.03;2096657;28;20272;-68
2022/06/29 03:38:00;;;;;;;11.43;8.70;;;;;;;18.79;100.00;101488.25;2099706;28;20197;-68
2022/06/29 03:39:00;;;;;;;12.07;8.57;;;;;;;19.45;100.00;101587.69;2102175;28;20171;-68
2022/06/29 03:40:01;;;;;;;9.17;8.30;;;;;;;19.57;100.00;101603.59;2096607;28;20175;-68
2022/06/29 03:41:02;;;;;;;9.37;8.37;;;;;;;19.40;100.00;101591.13;2097539;28;20584;-68
2022/06/29 03:42:03;;;;;;;9.40;8.50;;;;;;;19.50;100.00;101612.38;2104725;28;20191;-68
2022/06/29 03:43:04;;;;;;;10.00;8.70;;;;;;;19.49;100.00;101610.81;2105067;28;20518;-68
2022/06/29 03:44:04;;;;;;;9.07;8.27;;;;;;;19.48;100.00;101612.03;2099145;28;20882;-68
2022/06/29 03:45:05;;;;;;;11.43;7.97;;;;;;;19.44;100.00;101609.41;2096533;28;20191;-68
2022/06/29 03:46:06;;;;;;;8.57;7.40;;;;;;;19.33;100.00;101611.09;2100143;28;20194;-68
2022/06/29 03:47:07;;;;;;;9.57;7.80;;;;;;;19.34;100.00;101613.47;2102576;28;20626;-68
2022/06/29 03:48:08;;;;;;;8.80;8.00;;;;;;;19.29;100.00;101602.84;2096646;28;20233;-68
2022/06/29 03:49:08;;;;;;;10.80;8.10;;;;;;;19.01;100.00;101547.09;2095992;28;20430;-68
2022/06/29 03:50:09;;;;;;;13.70;8.90;;;;;;;19.36;100.00;101602.53;2097356;28;20199;-68
2022/06/29 03:51:10;;;;;;;13.77;8.50;;;;;;;19.39;100.00;101598.00;2096816;28;20194;-68
2022/06/29 03:52:10;;;;;;;13.23;8.50;;;;;;;18.37;100.00;101438.81;2096662;28;20263;-68
2022/06/29 03:53:11;;;;;;;17.33;8.73;;;;;;;19.36;100.00;101590.50;2101955;28;20201;-68
2022/06/29 03:54:11;;;;;;;12.97;8.50;;;;;;;19.50;100.00;101604.69;2102516;28;20178;-68
2022/06/29 03:55:12;;;;;;;14.00;8.37;;;;;;;19.47;100.00;101590.81;2096427;28;20176;-68
2022/06/29 03:56:12;;;;;;;12.77;8.57;;;;;;;19.09;100.00;101546.31;2103851;28;20627;-68
2022/06/29 03:57:13;;;;;;;9.13;7.63;;;;;;;18.89;100.00;101503.09;2105737;28;20723;-68
2022/06/29 03:58:13;;;;;;;8.93;8.03;;;;;;;19.50;100.00;101607.50;2097665;28;20199;-68
2022/06/29 03:59:14;;;;;;;10.57;7.90;;;;;;;19.45;100.00;101608.13;2096274;28;20194;-68
2022/06/29 04:00:15;;;;;;;9.37;8.03;;;;;;;19.42;100.00;101611.13;2112355;27;20288;-68
2022/06/29 04:01:16;;;;;;;8.77;7.47;;;;;;;19.33;100.00;101591.44;2112731;27;20194;-68
2022/06/29 04:02:16;;;;;;;10.67;8.97;;;;;;;18.93;100.00;101524.16;2099287;28;20479;-68
2022/06/29 04:03:17;;;;;;;13.60;8.40;;;;;;;19.53;100.00;101597.34;2104195;28;20171;-68
2022/06/29 04:04:18;;;;;;;14.67;8.57;;;;;;;19.68;100.00;101615.94;2104125;28;20178;-68
2022/06/29 04:05:18;;;;;;;15.50;8.40;;;;;;;19.62;100.00;101595.34;2097037;28;20172;-68
2022/06/29 04:06:19;;;;;;;9.50;8.17;;;;;;;19.27;100.00;101543.53;2095636;28;20287;-68
2022/06/29 04:07:19;;;;;;;9.60;7.60;;;;;;;19.88;100.00;101613.41;2097349;28;20194;-68
2022/06/29 04:08:20;;;;;;;10.33;7.87;;;;;;;19.90;100.00;101622.13;2098790;28;20191;-68
2022/06/29 04:09:20;;;;;;;17.93;8.00;;;;;;;19.97;100.00;101618.22;2098480;28;20195;-68
2022/06/29 04:10:21;;;;;;;13.00;7.67;;;;;;;19.89;100.00;101605.72;2111789;27;20193;-68
2022/06/29 04:12:40;;;;;;;11.07;7.40;;;;;;;20.11;100.00;101645.72;2104267;28;20191;-68
2022/06/29 04:13:41;;;;;;;7.87;7.17;;;;;;;20.14;100.00;101625.06;2102516;28;20453;-68
2022/06/29 04:14:41;;;;;;;8.37;7.57;;;;;;;19.52;100.00;101529.13;2097308;28;20236;-68
2022/06/29 04:15:42;;;;;;;8.90;7.60;;;;;;;20.16;100.00;101625.38;2105398;28;20171;-68
2022/06/29 04:16:42;;;;;;;11.20;7.90;;;;;;;20.20;100.00;101617.53;2095888;28;20195;-68
2022/06/29 04:17:43;;;;;;;8.57;7.30;;;;;;;20.18;100.00;101605.97;2095826;28;20227;-68
2022/06/29 04:18:43;;;;;;;10.70;7.20;;;;;;;20.28;100.00;101613.13;2097417;28;20202;-68
2022/06/29 04:19:44;;;;;;;8.73;6.93;;;;;;;20.15;100.00;101590.03;2099481;28;20195;-68
2022/06/29 04:22:03;;;;;;;7.93;7.10;;;;;;;20.42;100.00;101616.03;2099450;28;20199;-68
2022/06/29 04:23:04;;;;;;;8.40;7.20;;;;;;;20.32;100.00;101594.03;2101421;28;20437;-68
2022/06/29 04:24:05;;;;;;;9.17;6.67;;;;;;;20.47;100.00;101606.19;2101505;28;20219;-68
2022/06/29 04:25:06;;;;;;;11.90;6.83;;;;;;;20.54;100.00;101614.25;2102739;28;20182;-68
2022/06/29 04:26:06;;;;;;;9.53;7.00;;;;;;;20.60;100.00;101606.72;2102791;28;20268;-68
2022/06/29 04:27:07;;;;;;;10.97;7.53;;;;;;;20.26;100.00;101548.88;2103389;28;20675;-68
2022/06/29 04:28:07;;;;;;;9.30;6.90;;;;;;;20.67;100.00;101598.69;2105612;28;20202;-68
2022/06/29 04:29:08;;;;;;;8.57;6.70;;;;;;;20.65;100.00;101587.13;2101395;28;20312;-69
2022/06/29 04:30:09;;;;;;;7.80;7.00;;;;;;;20.74;100.00;101592.72;2105599;28;20201;-68
2022/06/29 04:31:09;;;;;;;7.57;6.70;;;;;;;20.74;100.00;101601.19;2100940;28;20561;-68
2022/06/29 04:32:10;;;;;;;10.13;7.10;;;;;;;20.80;100.00;101592.81;2102854;28;20464;-69
2022/06/29 04:33:11;;;;;;;9.80;6.80;;;;;;;20.83;100.00;101595.47;2102956;28;20654;-68
2022/06/29 04:34:11;;;;;;;7.53;6.77;;;;;;;20.84;100.00;101591.41;2102644;28;20316;-68
2022/06/29 04:35:12;;;;;;;7.87;7.17;;;;;;;20.86;100.00;101586.06;2103077;28;20175;-68
2022/06/29 04:36:13;;;;;;;8.97;7.17;;;;;;;20.67;100.00;101566.94;2101887;28;20205;-68
2022/06/29 04:37:13;;;;;;;12.47;7.43;;;;;;;20.83;100.00;101581.38;2101433;28;20615;-68
2022/06/29 04:38:14;;;;;;;8.07;7.33;;;;;;;20.91;100.00;101590.28;2104713;28;20191;-68
2022/06/29 04:39:14;;;;;;;8.70;7.60;;;;;;;20.73;100.00;101550.94;2101105;28;20272;-68
2022/06/29 04:40:15;;;;;;;10.57;7.80;;;;;;;20.12;100.00;101453.13;2102488;28;20230;-68
2022/06/29 04:41:15;;;;;;;8.60;7.30;;;;;;;21.04;100.00;101602.09;2102597;28;20168;-68
2022/06/29 04:42:16;;;;;;;7.73;7.00;;;;;;;21.06;100.00;101591.91;2103258;28;20576;-68
2022/06/29 04:43:16;;;;;;;8.53;7.23;;;;;;;21.11;100.00;101593.25;2106557;28;20202;-68
2022/06/29 04:44:17;;;;;;;8.97;6.70;;;;;;;21.16;100.00;101592.59;2105609;28;20720;-68